Fujimaru — JG4781 — position and weather

sailwx.info

Track history (hours):
 
Tides and Currents Weather Stations Pressure Air Temp Water Temp Dewpoint Dewpoint Depression Visibility Wind Speed Wind Dir Waves Ship Positions

Fujimaru

Last reported at 2018-Jun-19 21:23 UTC. Time now 2018-Jun-19 21:44 UTC.
Position N 35°25' E 139°41'.

Length 35 m.

Type: Tug. MMSI: 431100382.

Date/timePositionNaut miles runAvg speedWind from/ knotsBaromVisibWave heightAir tempDewpointWater temp
2018-Jun-19 21:23N 35°25' E 139°41'0 0.0
2018-Jun-19 20:53N 35°25' E 139°41'0 0.0
2018-Jun-19 20:29N 35°25' E 139°41'0 0.0
2018-Jun-19 19:56N 35°25' E 139°41'0 0.0
2018-Jun-19 19:26N 35°25' E 139°41'0 0.0
2018-Jun-19 18:38N 35°25' E 139°41'0 0.0
2018-Jun-19 18:29N 35°25' E 139°41'0 0.0
2018-Jun-19 17:11N 35°25' E 139°41'0 0.0
2018-Jun-19 16:02N 35°25' E 139°41'0 0.0
2018-Jun-19 15:56N 35°25' E 139°41'0 0.0
2018-Jun-19 14:05N 35°25' E 139°41'0 0.0
2018-Jun-19 13:50N 35°25' E 139°41'0 0.0
2018-Jun-19 13:29N 35°25' E 139°41'0 0.0
2018-Jun-19 12:56N 35°25' E 139°41'0 0.0
2018-Jun-19 11:44N 35°25' E 139°41'0 0.0
2018-Jun-19 11:29N 35°25' E 139°41'0 0.0
2018-Jun-19 10:44N 35°25' E 139°41'0 0.0
2018-Jun-19 10:29N 35°25' E 139°41'0 0.0
2018-Jun-19 09:44N 35°25' E 139°41'0 0.0
2018-Jun-19 09:29N 35°25' E 139°41'0 0.0
2018-Jun-19 08:41N 35°25' E 139°41'0 0.0
2018-Jun-19 08:17N 35°25' E 139°41'0 0.0
2018-Jun-19 07:14N 35°25' E 139°41'0 0.0
2018-Jun-19 06:14N 35°25' E 139°41'0 0.0
2018-Jun-19 05:59N 35°25' E 139°41'0 0.0
2018-Jun-19 05:26N 35°25' E 139°41'0 0.0
2018-Jun-19 04:56N 35°25' E 139°41'0 0.0
2018-Jun-19 04:23N 35°25' E 139°41'1 0.6
2018-Jun-19 03:04N 35°26' E 139°42'0 0.0
2018-Jun-19 02:52N 35°26' E 139°42'0 0.0
2018-Jun-19 02:28N 35°26' E 139°42'0 0.0
2018-Jun-19 01:55N 35°26' E 139°42'0 0.0
2018-Jun-19 00:43N 35°26' E 139°42'1 2.3
2018-Jun-19 00:30N 35°26' E 139°42'3 2.5
2018-Jun-18 23:17N 35°29' E 139°42'0 0.1
2018-Jun-18 22:47N 35°29' E 139°42'0 0.6
2018-Jun-18 22:30N 35°29' E 139°42'4 7.7
2018-Jun-18 22:00N 35°25' E 139°41'0 0.0
2018-Jun-18 21:09N 35°25' E 139°41'0 0.0
2018-Jun-18 20:54N 35°25' E 139°41'0 0.0
2018-Jun-18 20:24N 35°25' E 139°41'0 0.0
2018-Jun-18 19:54N 35°25' E 139°41'0 0.0
2018-Jun-18 18:21N 35°25' E 139°41'0 0.0
2018-Jun-18 17:57N 35°25' E 139°41'0 0.0
2018-Jun-18 17:30N 35°25' E 139°41'0 0.0
2018-Jun-18 16:57N 35°25' E 139°41'0 0.0
2018-Jun-18 16:30N 35°25' E 139°41'0 0.0
2018-Jun-18 16:00N 35°25' E 139°41'0 0.0
2018-Jun-18 15:12N 35°25' E 139°41'0 0.0
2018-Jun-18 15:00N 35°25' E 139°41'0 0.0
2018-Jun-18 14:30N 35°25' E 139°41'0 0.0
2018-Jun-18 14:00N 35°25' E 139°41'0 0.0
2018-Jun-18 13:06N 35°25' E 139°41'0 0.0
2018-Jun-18 12:51N 35°25' E 139°41'0 0.0
2018-Jun-18 11:57N 35°25' E 139°41'0 0.0
2018-Jun-18 11:24N 35°25' E 139°41'0 0.0
2018-Jun-18 11:00N 35°25' E 139°41'2 4.0
2018-Jun-18 10:27N 35°24' E 139°39'1 1.2
2018-Jun-18 09:58N 35°23' E 139°40'2 1.3
2018-Jun-18 08:25N 35°25' E 139°41'0 0.0
2018-Jun-18 07:49N 35°25' E 139°41'0 0.0
2018-Jun-18 07:22N 35°25' E 139°41'0 0.0
2018-Jun-18 06:52N 35°25' E 139°41'0 0.0
2018-Jun-18 06:07N 35°25' E 139°41'0 0.0
2018-Jun-18 05:58N 35°25' E 139°41'0 0.0
2018-Jun-18 05:28N 35°25' E 139°41'0 0.0
2018-Jun-18 04:58N 35°25' E 139°41'0 0.0
2018-Jun-18 04:28N 35°25' E 139°41'0 0.0
2018-Jun-18 03:55N 35°25' E 139°41'0 0.0
2018-Jun-18 03:28N 35°25' E 139°41'0 0.0
2018-Jun-18 02:58N 35°25' E 139°41'0 0.0
2018-Jun-18 02:13N 35°25' E 139°41'1 1.7
2018-Jun-18 01:51N 35°25' E 139°42'0 0.5
2018-Jun-18 01:26N 35°26' E 139°42'0 0.1
2018-Jun-18 00:59N 35°26' E 139°42'5 0.9
2018-Jun-17 19:19N 35°23' E 139°47'3 7.3
2018-Jun-17 18:53N 35°24' E 139°43'2 4.6
2018-Jun-17 18:23N 35°25' E 139°41'0 0.0
2018-Jun-17 16:44N 35°25' E 139°41'0 0.0
2018-Jun-17 16:23N 35°25' E 139°41'0 0.0
2018-Jun-17 14:32N 35°25' E 139°41'0 0.0
2018-Jun-17 13:08N 35°25' E 139°41'0 0.0
2018-Jun-17 12:56N 35°25' E 139°41'0 0.0
2018-Jun-17 12:26N 35°25' E 139°41'0 0.0
2018-Jun-17 11:44N 35°25' E 139°41'0 0.0
2018-Jun-17 10:14N 35°25' E 139°41'0 0.0
2018-Jun-17 09:50N 35°25' E 139°41'0 0.0
2018-Jun-17 09:23N 35°25' E 139°41'0 0.0
2018-Jun-17 08:53N 35°25' E 139°41'0 0.0
2018-Jun-17 07:29N 35°25' E 139°41'0 0.0
2018-Jun-17 06:14N 35°25' E 139°41'0 0.0
2018-Jun-17 05:56N 35°25' E 139°41'0 0.0
2018-Jun-17 04:59N 35°25' E 139°41'0 0.0
2018-Jun-17 04:11N 35°25' E 139°41'0 0.0
2018-Jun-17 03:44N 35°25' E 139°41'0 0.0
2018-Jun-17 03:20N 35°25' E 139°41'0 0.0
2018-Jun-17 02:53N 35°25' E 139°41'0 0.0
2018-Jun-17 02:20N 35°25' E 139°41'0 0.0
2018-Jun-17 01:59N 35°25' E 139°41'0 0.0
2018-Jun-17 01:30N 35°25' E 139°41'0 0.0
2018-Jun-16 23:39N 35°25' E 139°41'0 0.0
2018-Jun-16 23:18N 35°25' E 139°41'0 0.0
2018-Jun-16 22:09N 35°25' E 139°41'0 0.0
2018-Jun-16 21:51N 35°25' E 139°41'0 0.0
2018-Jun-16 20:09N 35°25' E 139°41'0 0.0
2018-Jun-16 18:45N 35°25' E 139°41'0 0.0
2018-Jun-16 15:06N 35°25' E 139°41'0 0.0
2018-Jun-16 14:54N 35°25' E 139°41'0 0.0
2018-Jun-16 14:27N 35°25' E 139°41'0 0.0
2018-Jun-16 10:06N 35°25' E 139°41'0 0.0
2018-Jun-16 09:57N 35°25' E 139°41'0 0.0
2018-Jun-16 08:48N 35°25' E 139°41'0 0.0
2018-Jun-16 08:30N 35°25' E 139°41'0 0.0
2018-Jun-16 07:54N 35°25' E 139°41'0 0.0
2018-Jun-16 07:24N 35°25' E 139°41'0 0.0
2018-Jun-16 06:57N 35°25' E 139°41'0 0.0
2018-Jun-16 06:30N 35°25' E 139°41'0 0.0
2018-Jun-16 06:00N 35°25' E 139°41'0 0.0
2018-Jun-16 05:30N 35°25' E 139°41'0 0.0
2018-Jun-16 05:00N 35°25' E 139°41'0 0.0
2018-Jun-16 04:27N 35°25' E 139°41'0 0.0
2018-Jun-16 03:48N 35°25' E 139°41'0 0.0
2018-Jun-16 03:30N 35°25' E 139°41'0 0.0
2018-Jun-16 03:00N 35°25' E 139°41'0 0.0
2018-Jun-16 02:21N 35°25' E 139°41'0 0.0
2018-Jun-16 01:51N 35°25' E 139°41'0 0.0
2018-Jun-16 01:30N 35°25' E 139°41'0 0.0
2018-Jun-16 00:57N 35°25' E 139°41'0 0.0
2018-Jun-16 00:21N 35°25' E 139°41'0 0.0
2018-Jun-16 00:00N 35°25' E 139°41'0 0.0
2018-Jun-15 23:21N 35°25' E 139°41'0 0.0
2018-Jun-15 21:48N 35°25' E 139°41'0 0.0
2018-Jun-15 21:30N 35°25' E 139°41'0 0.0
2018-Jun-15 19:06N 35°25' E 139°41'0 0.0
2018-Jun-15 18:39N 35°25' E 139°41'0 0.0
2018-Jun-15 16:30N 35°25' E 139°41'0 0.0
2018-Jun-15 15:24N 35°25' E 139°41'0 0.0
2018-Jun-15 13:18N 35°25' E 139°41'0 0.0
2018-Jun-15 13:00N 35°25' E 139°41'0 0.0
2018-Jun-15 10:45N 35°25' E 139°41'0 0.0
2018-Jun-15 09:33N 35°25' E 139°41'0 0.0
2018-Jun-15 09:18N 35°25' E 139°41'2 4.3
2018-Jun-15 08:52N 35°24' E 139°39'0 1.1
2018-Jun-15 08:29N 35°23' E 139°39'1 1.0
2018-Jun-15 07:54N 35°23' E 139°40'0 0.0
2018-Jun-15 07:30N 35°23' E 139°40'0 0.0
2018-Jun-15 07:00N 35°23' E 139°40'0 0.0
2018-Jun-15 06:24N 35°23' E 139°40'1 1.7
2018-Jun-15 05:55N 35°23' E 139°41'2 3.2
2018-Jun-15 05:21N 35°25' E 139°41'0 0.1
2018-Jun-15 04:54N 35°25' E 139°41'0 0.1
2018-Jun-15 04:27N 35°25' E 139°41'0 0.3
2018-Jun-15 04:00N 35°25' E 139°41'3 5.0
2018-Jun-15 03:29N 35°23' E 139°39'1 1.5
2018-Jun-15 02:54N 35°24' E 139°40'2 4.0
2018-Jun-15 02:28N 35°25' E 139°41'0 0.3
2018-Jun-15 01:56N 35°25' E 139°41'0 0.0
2018-Jun-15 01:29N 35°25' E 139°41'0 0.0
2018-Jun-15 00:59N 35°25' E 139°41'0 0.0
2018-Jun-15 00:26N 35°25' E 139°41'0 0.0
2018-Jun-14 23:59N 35°25' E 139°41'0 0.0
2018-Jun-14 23:17N 35°25' E 139°41'1 3.0
2018-Jun-14 23:00N 35°25' E 139°42'3 6.1
2018-Jun-14 22:30N 35°24' E 139°38'0 0.5
2018-Jun-14 21:57N 35°24' E 139°39'0 0.5
2018-Jun-14 21:26N 35°24' E 139°38'1 0.7
2018-Jun-14 19:34N 35°23' E 139°40'0 0.0
2018-Jun-14 19:19N 35°23' E 139°40'0 0.0
2018-Jun-14 18:40N 35°23' E 139°40'0 0.0
2018-Jun-14 17:10N 35°23' E 139°40'0 0.0
2018-Jun-14 16:43N 35°23' E 139°40'0 0.0
2018-Jun-14 16:19N 35°23' E 139°40'0 0.0
2018-Jun-14 15:22N 35°23' E 139°40'0 0.0
2018-Jun-14 14:52N 35°23' E 139°40'0 0.0
2018-Jun-14 13:43N 35°23' E 139°40'0 0.0
2018-Jun-14 12:28N 35°23' E 139°40'0 0.0
2018-Jun-14 11:55N 35°23' E 139°40'0 0.0
2018-Jun-14 11:16N 35°23' E 139°40'0 0.0
2018-Jun-14 10:43N 35°23' E 139°40'0 0.0
2018-Jun-14 10:22N 35°23' E 139°40'0 0.0
2018-Jun-14 09:58N 35°23' E 139°40'0 0.0
2018-Jun-14 08:40N 35°23' E 139°40'0 0.0
2018-Jun-14 08:28N 35°23' E 139°40'2 3.3
2018-Jun-14 07:59N 35°24' E 139°38'0 0.0
2018-Jun-14 06:50N 35°24' E 139°38'0 0.0
2018-Jun-14 06:19N 35°24' E 139°38'0 0.8
2018-Jun-14 05:55N 35°24' E 139°38'0 0.3
2018-Jun-14 05:25N 35°24' E 139°38'0 0.1
2018-Jun-14 04:59N 35°24' E 139°38'0 0.2
2018-Jun-14 04:28N 35°24' E 139°38'0 0.1
2018-Jun-14 03:58N 35°24' E 139°38'0 0.3
2018-Jun-14 03:20N 35°24' E 139°38'0 0.0
2018-Jun-14 01:53N 35°24' E 139°38'0 0.0
2018-Jun-14 01:29N 35°24' E 139°38'0 0.0
2018-Jun-14 00:53N 35°24' E 139°38'0 0.0
2018-Jun-14 00:26N 35°24' E 139°38'0 0.4
2018-Jun-13 23:31N 35°24' E 139°38'0 0.3
2018-Jun-13 23:21N 35°24' E 139°38'0 0.6
2018-Jun-13 22:57N 35°24' E 139°38'0 0.3
2018-Jun-13 22:24N 35°24' E 139°38'0 0.0
2018-Jun-13 21:56N 35°24' E 139°38'1 1.3
2018-Jun-13 21:28N 35°24' E 139°39'2 0.4
2018-Jun-13 15:40N 35°25' E 139°41'0 0.0
2018-Jun-13 14:28N 35°25' E 139°41'0 0.0
2018-Jun-13 13:10N 35°25' E 139°41'0 0.0
2018-Jun-13 11:43N 35°25' E 139°41'0 0.0
2018-Jun-13 10:01N 35°25' E 139°41'0 0.0
2018-Jun-13 09:31N 35°25' E 139°41'0 0.0
2018-Jun-13 09:25N 35°25' E 139°41'0 0.0
2018-Jun-13 08:37N 35°25' E 139°41'0 0.0
2018-Jun-13 08:05N 35°25' E 139°41'0 0.0
2018-Jun-13 07:55N 35°25' E 139°41'0 0.0
2018-Jun-13 07:29N 35°25' E 139°41'0 0.0
2018-Jun-13 06:59N 35°25' E 139°41'0 0.0
2018-Jun-13 06:16N 35°25' E 139°41'0 0.3
2018-Jun-13 05:58N 35°25' E 139°41'0 0.3
2018-Jun-13 05:28N 35°25' E 139°41'0 0.4
2018-Jun-13 04:58N 35°25' E 139°41'1 0.3
2018-Jun-13 02:29N 35°26' E 139°41'0 0.0
2018-Jun-13 00:16N 35°26' E 139°41'1 0.8
2018-Jun-12 23:29N 35°25' E 139°41'0 0.1
2018-Jun-12 22:56N 35°25' E 139°41'0 0.2
2018-Jun-12 22:28N 35°25' E 139°41'0 0.2
2018-Jun-12 21:32N 35°25' E 139°41'0 1.4
2018-Jun-12 21:30N 35°25' E 139°41'1 1.1
2018-Jun-12 20:49N 35°26' E 139°42'0 0.0
2018-Jun-12 20:16N 35°26' E 139°42'0 0.0
2018-Jun-12 19:49N 35°26' E 139°42'0 0.0
2018-Jun-12 19:19N 35°26' E 139°42'0 0.0
2018-Jun-12 18:58N 35°26' E 139°42'0 0.0
2018-Jun-12 18:22N 35°26' E 139°42'0 0.1
2018-Jun-12 17:55N 35°26' E 139°42'0 0.0
2018-Jun-12 17:28N 35°26' E 139°42'0 0.1
2018-Jun-12 16:58N 35°26' E 139°42'0 0.0
2018-Jun-12 15:55N 35°26' E 139°42'0 0.0
2018-Jun-12 15:25N 35°26' E 139°42'0 0.0
2018-Jun-12 14:13N 35°26' E 139°42'5 0.7
2018-Jun-12 07:33N 35°23' E 139°47'110.7
2018-Jun-12 07:26N 35°23' E 139°45'4 3.8
2018-Jun-12 06:21N 35°25' E 139°41'0 0.6
2018-Jun-12 05:57N 35°25' E 139°41'0 0.0
2018-Jun-12 05:22N 35°25' E 139°41'0 0.1
2018-Jun-12 04:20N 35°25' E 139°41'0 0.0
2018-Jun-12 03:59N 35°25' E 139°41'0 0.0
2018-Jun-12 03:29N 35°25' E 139°41'0 0.0
2018-Jun-12 02:05N 35°25' E 139°41'0 0.1
2018-Jun-12 01:59N 35°25' E 139°41'0 0.0
2018-Jun-12 01:29N 35°25' E 139°41'0 0.0
2018-Jun-12 00:50N 35°25' E 139°41'0 0.0
2018-Jun-12 00:11N 35°25' E 139°41'0 0.0
2018-Jun-11 23:50N 35°25' E 139°41'0 0.0
2018-Jun-11 23:26N 35°25' E 139°41'0 0.0
2018-Jun-11 22:56N 35°25' E 139°41'0 0.0
2018-Jun-11 22:29N 35°25' E 139°41'0 0.0
2018-Jun-11 21:59N 35°25' E 139°41'0 0.0
2018-Jun-11 21:26N 35°25' E 139°41'0 0.0
2018-Jun-11 20:32N 35°25' E 139°41'0 0.0
2018-Jun-11 19:29N 35°25' E 139°41'0 0.0
2018-Jun-11 18:59N 35°25' E 139°41'0 0.0
2018-Jun-11 17:38N 35°25' E 139°41'0 0.0
2018-Jun-11 17:23N 35°25' E 139°41'0 0.0
2018-Jun-11 16:59N 35°25' E 139°41'0 0.0
2018-Jun-11 13:11N 35°25' E 139°41'0 0.0
2018-Jun-11 12:41N 35°25' E 139°41'0 0.0
2018-Jun-11 07:59N 35°25' E 139°41'0 0.0
2018-Jun-11 07:11N 35°25' E 139°41'0 0.0
2018-Jun-11 06:59N 35°25' E 139°41'0 0.0
2018-Jun-11 06:11N 35°25' E 139°41'0 0.0
2018-Jun-11 05:47N 35°25' E 139°41'0 0.0
2018-Jun-11 05:17N 35°25' E 139°41'0 0.0
2018-Jun-11 04:14N 35°25' E 139°41'0 0.0
2018-Jun-11 03:53N 35°25' E 139°41'0 0.0
2018-Jun-11 03:20N 35°25' E 139°41'0 0.0
2018-Jun-11 02:08N 35°25' E 139°41'0 0.0
2018-Jun-11 01:53N 35°25' E 139°41'0 0.0
2018-Jun-10 23:20N 35°25' E 139°41'0 0.0
2018-Jun-10 22:53N 35°25' E 139°41'0 0.0
2018-Jun-10 22:26N 35°25' E 139°41'0 0.0
2018-Jun-10 19:29N 35°25' E 139°41'0 0.0
2018-Jun-10 17:14N 35°25' E 139°41'0 0.0
2018-Jun-10 16:59N 35°25' E 139°41'0 0.0
2018-Jun-10 14:59N 35°25' E 139°41'0 0.0
2018-Jun-10 11:32N 35°25' E 139°41'0 0.0
2018-Jun-10 11:16N 35°25' E 139°41'2 5.5
2018-Jun-10 10:57N 35°23' E 139°41'2 3.2
2018-Jun-10 10:24N 35°23' E 139°39'0 0.1
2018-Jun-10 09:54N 35°24' E 139°39'2 3.5
2018-Jun-10 09:24N 35°23' E 139°41'2 1.2
2018-Jun-10 08:01N 35°25' E 139°41'0 0.1
2018-Jun-10 07:58N 35°25' E 139°41'0 0.0
2018-Jun-10 07:16N 35°25' E 139°41'0 0.0
2018-Jun-10 06:52N 35°25' E 139°41'0 0.0
2018-Jun-10 06:19N 35°25' E 139°41'0 0.0
2018-Jun-10 04:25N 35°25' E 139°41'0 0.0
2018-Jun-10 02:58N 35°25' E 139°41'0 0.0
2018-Jun-10 01:31N 35°25' E 139°41'0 0.0
2018-Jun-10 01:28N 35°25' E 139°41'0 0.0
2018-Jun-10 00:49N 35°25' E 139°41'0 0.0
2018-Jun-10 00:22N 35°25' E 139°41'0 0.0
2018-Jun-09 23:58N 35°25' E 139°41'0 0.0
2018-Jun-09 23:25N 35°25' E 139°41'0 0.0
2018-Jun-09 22:55N 35°25' E 139°41'0 0.0
2018-Jun-09 22:25N 35°25' E 139°41'0 0.0
2018-Jun-09 21:46N 35°25' E 139°41'  
Track history (hours):
 
Tides and Currents Weather Stations Pressure Air Temp Water Temp Dewpoint Dewpoint Depression Visibility Wind Speed Wind Dir Waves Ship Positions

Fujimaru

Last reported at 2018-Jun-19 21:23 UTC. Time now 2018-Jun-19 21:44 UTC.
Position N 35°25' E 139°41'.

Length 35 m.

Type: Tug. MMSI: 431100382.

Date/timePositionNaut miles runAvg speedWind from/ knotsBaromVisibWave heightAir tempDewpointWater temp
2018-Jun-19 21:23N 35°25' E 139°41'0 0.0
2018-Jun-19 20:53N 35°25' E 139°41'0 0.0
2018-Jun-19 20:29N 35°25' E 139°41'0 0.0
2018-Jun-19 19:56N 35°25' E 139°41'0 0.0
2018-Jun-19 19:26N 35°25' E 139°41'0 0.0
2018-Jun-19 18:38N 35°25' E 139°41'0 0.0
2018-Jun-19 18:29N 35°25' E 139°41'0 0.0
2018-Jun-19 17:11N 35°25' E 139°41'0 0.0
2018-Jun-19 16:02N 35°25' E 139°41'0 0.0
2018-Jun-19 15:56N 35°25' E 139°41'0 0.0
2018-Jun-19 14:05N 35°25' E 139°41'0 0.0
2018-Jun-19 13:50N 35°25' E 139°41'0 0.0
2018-Jun-19 13:29N 35°25' E 139°41'0 0.0
2018-Jun-19 12:56N 35°25' E 139°41'0 0.0
2018-Jun-19 11:44N 35°25' E 139°41'0 0.0
2018-Jun-19 11:29N 35°25' E 139°41'0 0.0
2018-Jun-19 10:44N 35°25' E 139°41'0 0.0
2018-Jun-19 10:29N 35°25' E 139°41'0 0.0
2018-Jun-19 09:44N 35°25' E 139°41'0 0.0
2018-Jun-19 09:29N 35°25' E 139°41'0 0.0
2018-Jun-19 08:41N 35°25' E 139°41'0 0.0
2018-Jun-19 08:17N 35°25' E 139°41'0 0.0
2018-Jun-19 07:14N 35°25' E 139°41'0 0.0
2018-Jun-19 06:14N 35°25' E 139°41'0 0.0
2018-Jun-19 05:59N 35°25' E 139°41'0 0.0
2018-Jun-19 05:26N 35°25' E 139°41'0 0.0
2018-Jun-19 04:56N 35°25' E 139°41'0 0.0
2018-Jun-19 04:23N 35°25' E 139°41'1 0.6
2018-Jun-19 03:04N 35°26' E 139°42'0 0.0
2018-Jun-19 02:52N 35°26' E 139°42'0 0.0
2018-Jun-19 02:28N 35°26' E 139°42'0 0.0
2018-Jun-19 01:55N 35°26' E 139°42'0 0.0
2018-Jun-19 00:43N 35°26' E 139°42'1 2.3
2018-Jun-19 00:30N 35°26' E 139°42'3 2.5
2018-Jun-18 23:17N 35°29' E 139°42'0 0.1
2018-Jun-18 22:47N 35°29' E 139°42'0 0.6
2018-Jun-18 22:30N 35°29' E 139°42'4 7.7
2018-Jun-18 22:00N 35°25' E 139°41'0 0.0
2018-Jun-18 21:09N 35°25' E 139°41'0 0.0
2018-Jun-18 20:54N 35°25' E 139°41'0 0.0
2018-Jun-18 20:24N 35°25' E 139°41'0 0.0
2018-Jun-18 19:54N 35°25' E 139°41'0 0.0
2018-Jun-18 18:21N 35°25' E 139°41'0 0.0
2018-Jun-18 17:57N 35°25' E 139°41'0 0.0
2018-Jun-18 17:30N 35°25' E 139°41'0 0.0
2018-Jun-18 16:57N 35°25' E 139°41'0 0.0
2018-Jun-18 16:30N 35°25' E 139°41'0 0.0
2018-Jun-18 16:00N 35°25' E 139°41'0 0.0
2018-Jun-18 15:12N 35°25' E 139°41'0 0.0
2018-Jun-18 15:00N 35°25' E 139°41'0 0.0
2018-Jun-18 14:30N 35°25' E 139°41'0 0.0
2018-Jun-18 14:00N 35°25' E 139°41'0 0.0
2018-Jun-18 13:06N 35°25' E 139°41'0 0.0
2018-Jun-18 12:51N 35°25' E 139°41'0 0.0
2018-Jun-18 11:57N 35°25' E 139°41'0 0.0
2018-Jun-18 11:24N 35°25' E 139°41'0 0.0
2018-Jun-18 11:00N 35°25' E 139°41'2 4.0
2018-Jun-18 10:27N 35°24' E 139°39'1 1.2
2018-Jun-18 09:58N 35°23' E 139°40'2 1.3
2018-Jun-18 08:25N 35°25' E 139°41'0 0.0
2018-Jun-18 07:49N 35°25' E 139°41'0 0.0
2018-Jun-18 07:22N 35°25' E 139°41'0 0.0
2018-Jun-18 06:52N 35°25' E 139°41'0 0.0
2018-Jun-18 06:07N 35°25' E 139°41'0 0.0
2018-Jun-18 05:58N 35°25' E 139°41'0 0.0
2018-Jun-18 05:28N 35°25' E 139°41'0 0.0
2018-Jun-18 04:58N 35°25' E 139°41'0 0.0
2018-Jun-18 04:28N 35°25' E 139°41'0 0.0
2018-Jun-18 03:55N 35°25' E 139°41'0 0.0
2018-Jun-18 03:28N 35°25' E 139°41'0 0.0
2018-Jun-18 02:58N 35°25' E 139°41'0 0.0
2018-Jun-18 02:13N 35°25' E 139°41'1 1.7
2018-Jun-18 01:51N 35°25' E 139°42'0 0.5
2018-Jun-18 01:26N 35°26' E 139°42'0 0.1
2018-Jun-18 00:59N 35°26' E 139°42'5 0.9
2018-Jun-17 19:19N 35°23' E 139°47'3 7.3
2018-Jun-17 18:53N 35°24' E 139°43'2 4.6
2018-Jun-17 18:23N 35°25' E 139°41'0 0.0
2018-Jun-17 16:44N 35°25' E 139°41'0 0.0
2018-Jun-17 16:23N 35°25' E 139°41'0 0.0
2018-Jun-17 14:32N 35°25' E 139°41'0 0.0
2018-Jun-17 13:08N 35°25' E 139°41'0 0.0
2018-Jun-17 12:56N 35°25' E 139°41'0 0.0
2018-Jun-17 12:26N 35°25' E 139°41'0 0.0
2018-Jun-17 11:44N 35°25' E 139°41'0 0.0
2018-Jun-17 10:14N 35°25' E 139°41'0 0.0
2018-Jun-17 09:50N 35°25' E 139°41'0 0.0
2018-Jun-17 09:23N 35°25' E 139°41'0 0.0
2018-Jun-17 08:53N 35°25' E 139°41'0 0.0
2018-Jun-17 07:29N 35°25' E 139°41'0 0.0
2018-Jun-17 06:14N 35°25' E 139°41'0 0.0
2018-Jun-17 05:56N 35°25' E 139°41'0 0.0
2018-Jun-17 04:59N 35°25' E 139°41'0 0.0
2018-Jun-17 04:11N 35°25' E 139°41'0 0.0
2018-Jun-17 03:44N 35°25' E 139°41'0 0.0
2018-Jun-17 03:20N 35°25' E 139°41'0 0.0
2018-Jun-17 02:53N 35°25' E 139°41'0 0.0
2018-Jun-17 02:20N 35°25' E 139°41'0 0.0
2018-Jun-17 01:59N 35°25' E 139°41'0 0.0
2018-Jun-17 01:30N 35°25' E 139°41'0 0.0
2018-Jun-16 23:39N 35°25' E 139°41'0 0.0
2018-Jun-16 23:18N 35°25' E 139°41'0 0.0
2018-Jun-16 22:09N 35°25' E 139°41'0 0.0
2018-Jun-16 21:51N 35°25' E 139°41'0 0.0
2018-Jun-16 20:09N 35°25' E 139°41'0 0.0
2018-Jun-16 18:45N 35°25' E 139°41'0 0.0
2018-Jun-16 15:06N 35°25' E 139°41'0 0.0
2018-Jun-16 14:54N 35°25' E 139°41'0 0.0
2018-Jun-16 14:27N 35°25' E 139°41'0 0.0
2018-Jun-16 10:06N 35°25' E 139°41'0 0.0
2018-Jun-16 09:57N 35°25' E 139°41'0 0.0
2018-Jun-16 08:48N 35°25' E 139°41'0 0.0
2018-Jun-16 08:30N 35°25' E 139°41'0 0.0
2018-Jun-16 07:54N 35°25' E 139°41'0 0.0
2018-Jun-16 07:24N 35°25' E 139°41'0 0.0
2018-Jun-16 06:57N 35°25' E 139°41'0 0.0
2018-Jun-16 06:30N 35°25' E 139°41'0 0.0
2018-Jun-16 06:00N 35°25' E 139°41'0 0.0
2018-Jun-16 05:30N 35°25' E 139°41'0 0.0
2018-Jun-16 05:00N 35°25' E 139°41'0 0.0
2018-Jun-16 04:27N 35°25' E 139°41'0 0.0
2018-Jun-16 03:48N 35°25' E 139°41'0 0.0
2018-Jun-16 03:30N 35°25' E 139°41'0 0.0
2018-Jun-16 03:00N 35°25' E 139°41'0 0.0
2018-Jun-16 02:21N 35°25' E 139°41'0 0.0
2018-Jun-16 01:51N 35°25' E 139°41'0 0.0
2018-Jun-16 01:30N 35°25' E 139°41'0 0.0
2018-Jun-16 00:57N 35°25' E 139°41'0 0.0
2018-Jun-16 00:21N 35°25' E 139°41'0 0.0
2018-Jun-16 00:00N 35°25' E 139°41'0 0.0
2018-Jun-15 23:21N 35°25' E 139°41'0 0.0
2018-Jun-15 21:48N 35°25' E 139°41'0 0.0
2018-Jun-15 21:30N 35°25' E 139°41'0 0.0
2018-Jun-15 19:06N 35°25' E 139°41'0 0.0
2018-Jun-15 18:39N 35°25' E 139°41'0 0.0
2018-Jun-15 16:30N 35°25' E 139°41'0 0.0
2018-Jun-15 15:24N 35°25' E 139°41'0 0.0
2018-Jun-15 13:18N 35°25' E 139°41'0 0.0
2018-Jun-15 13:00N 35°25' E 139°41'0 0.0
2018-Jun-15 10:45N 35°25' E 139°41'0 0.0
2018-Jun-15 09:33N 35°25' E 139°41'0 0.0
2018-Jun-15 09:18N 35°25' E 139°41'2 4.3
2018-Jun-15 08:52N 35°24' E 139°39'0 1.1
2018-Jun-15 08:29N 35°23' E 139°39'1 1.0
2018-Jun-15 07:54N 35°23' E 139°40'0 0.0
2018-Jun-15 07:30N 35°23' E 139°40'0 0.0
2018-Jun-15 07:00N 35°23' E 139°40'0 0.0
2018-Jun-15 06:24N 35°23' E 139°40'1 1.7
2018-Jun-15 05:55N 35°23' E 139°41'2 3.2
2018-Jun-15 05:21N 35°25' E 139°41'0 0.1
2018-Jun-15 04:54N 35°25' E 139°41'0 0.1
2018-Jun-15 04:27N 35°25' E 139°41'0 0.3
2018-Jun-15 04:00N 35°25' E 139°41'3 5.0
2018-Jun-15 03:29N 35°23' E 139°39'1 1.5
2018-Jun-15 02:54N 35°24' E 139°40'2 4.0
2018-Jun-15 02:28N 35°25' E 139°41'0 0.3
2018-Jun-15 01:56N 35°25' E 139°41'0 0.0
2018-Jun-15 01:29N 35°25' E 139°41'0 0.0
2018-Jun-15 00:59N 35°25' E 139°41'0 0.0
2018-Jun-15 00:26N 35°25' E 139°41'0 0.0
2018-Jun-14 23:59N 35°25' E 139°41'0 0.0
2018-Jun-14 23:17N 35°25' E 139°41'1 3.0
2018-Jun-14 23:00N 35°25' E 139°42'3 6.1
2018-Jun-14 22:30N 35°24' E 139°38'0 0.5
2018-Jun-14 21:57N 35°24' E 139°39'0 0.5
2018-Jun-14 21:26N 35°24' E 139°38'1 0.7
2018-Jun-14 19:34N 35°23' E 139°40'0 0.0
2018-Jun-14 19:19N 35°23' E 139°40'0 0.0
2018-Jun-14 18:40N 35°23' E 139°40'0 0.0
2018-Jun-14 17:10N 35°23' E 139°40'0 0.0
2018-Jun-14 16:43N 35°23' E 139°40'0 0.0
2018-Jun-14 16:19N 35°23' E 139°40'0 0.0
2018-Jun-14 15:22N 35°23' E 139°40'0 0.0
2018-Jun-14 14:52N 35°23' E 139°40'0 0.0
2018-Jun-14 13:43N 35°23' E 139°40'0 0.0
2018-Jun-14 12:28N 35°23' E 139°40'0 0.0
2018-Jun-14 11:55N 35°23' E 139°40'0 0.0
2018-Jun-14 11:16N 35°23' E 139°40'0 0.0
2018-Jun-14 10:43N 35°23' E 139°40'0 0.0
2018-Jun-14 10:22N 35°23' E 139°40'0 0.0
2018-Jun-14 09:58N 35°23' E 139°40'0 0.0
2018-Jun-14 08:40N 35°23' E 139°40'0 0.0
2018-Jun-14 08:28N 35°23' E 139°40'2 3.3
2018-Jun-14 07:59N 35°24' E 139°38'0 0.0
2018-Jun-14 06:50N 35°24' E 139°38'0 0.0
2018-Jun-14 06:19N 35°24' E 139°38'0 0.8
2018-Jun-14 05:55N 35°24' E 139°38'0 0.3
2018-Jun-14 05:25N 35°24' E 139°38'0 0.1
2018-Jun-14 04:59N 35°24' E 139°38'0 0.2
2018-Jun-14 04:28N 35°24' E 139°38'0 0.1
2018-Jun-14 03:58N 35°24' E 139°38'0 0.3
2018-Jun-14 03:20N 35°24' E 139°38'0 0.0
2018-Jun-14 01:53N 35°24' E 139°38'0 0.0
2018-Jun-14 01:29N 35°24' E 139°38'0 0.0
2018-Jun-14 00:53N 35°24' E 139°38'0 0.0
2018-Jun-14 00:26N 35°24' E 139°38'0 0.4
2018-Jun-13 23:31N 35°24' E 139°38'0 0.3
2018-Jun-13 23:21N 35°24' E 139°38'0 0.6
2018-Jun-13 22:57N 35°24' E 139°38'0 0.3
2018-Jun-13 22:24N 35°24' E 139°38'0 0.0
2018-Jun-13 21:56N 35°24' E 139°38'1 1.3
2018-Jun-13 21:28N 35°24' E 139°39'2 0.4
2018-Jun-13 15:40N 35°25' E 139°41'0 0.0
2018-Jun-13 14:28N 35°25' E 139°41'0 0.0
2018-Jun-13 13:10N 35°25' E 139°41'0 0.0
2018-Jun-13 11:43N 35°25' E 139°41'0 0.0
2018-Jun-13 10:01N 35°25' E 139°41'0 0.0
2018-Jun-13 09:31N 35°25' E 139°41'0 0.0
2018-Jun-13 09:25N 35°25' E 139°41'0 0.0
2018-Jun-13 08:37N 35°25' E 139°41'0 0.0
2018-Jun-13 08:05N 35°25' E 139°41'0 0.0
2018-Jun-13 07:55N 35°25' E 139°41'0 0.0
2018-Jun-13 07:29N 35°25' E 139°41'0 0.0
2018-Jun-13 06:59N 35°25' E 139°41'0 0.0
2018-Jun-13 06:16N 35°25' E 139°41'0 0.3
2018-Jun-13 05:58N 35°25' E 139°41'0 0.3
2018-Jun-13 05:28N 35°25' E 139°41'0 0.4
2018-Jun-13 04:58N 35°25' E 139°41'1 0.3
2018-Jun-13 02:29N 35°26' E 139°41'0 0.0
2018-Jun-13 00:16N 35°26' E 139°41'1 0.8
2018-Jun-12 23:29N 35°25' E 139°41'0 0.1
2018-Jun-12 22:56N 35°25' E 139°41'0 0.2
2018-Jun-12 22:28N 35°25' E 139°41'0 0.2
2018-Jun-12 21:32N 35°25' E 139°41'0 1.4
2018-Jun-12 21:30N 35°25' E 139°41'1 1.1
2018-Jun-12 20:49N 35°26' E 139°42'0 0.0
2018-Jun-12 20:16N 35°26' E 139°42'0 0.0
2018-Jun-12 19:49N 35°26' E 139°42'0 0.0
2018-Jun-12 19:19N 35°26' E 139°42'0 0.0
2018-Jun-12 18:58N 35°26' E 139°42'0 0.0
2018-Jun-12 18:22N 35°26' E 139°42'0 0.1
2018-Jun-12 17:55N 35°26' E 139°42'0 0.0
2018-Jun-12 17:28N 35°26' E 139°42'0 0.1
2018-Jun-12 16:58N 35°26' E 139°42'0 0.0
2018-Jun-12 15:55N 35°26' E 139°42'0 0.0
2018-Jun-12 15:25N 35°26' E 139°42'0 0.0
2018-Jun-12 14:13N 35°26' E 139°42'5 0.7
2018-Jun-12 07:33N 35°23' E 139°47'110.7
2018-Jun-12 07:26N 35°23' E 139°45'4 3.8
2018-Jun-12 06:21N 35°25' E 139°41'0 0.6
2018-Jun-12 05:57N 35°25' E 139°41'0 0.0
2018-Jun-12 05:22N 35°25' E 139°41'0 0.1
2018-Jun-12 04:20N 35°25' E 139°41'0 0.0
2018-Jun-12 03:59N 35°25' E 139°41'0 0.0
2018-Jun-12 03:29N 35°25' E 139°41'0 0.0
2018-Jun-12 02:05N 35°25' E 139°41'0 0.1
2018-Jun-12 01:59N 35°25' E 139°41'0 0.0
2018-Jun-12 01:29N 35°25' E 139°41'0 0.0
2018-Jun-12 00:50N 35°25' E 139°41'0 0.0
2018-Jun-12 00:11N 35°25' E 139°41'0 0.0
2018-Jun-11 23:50N 35°25' E 139°41'0 0.0
2018-Jun-11 23:26N 35°25' E 139°41'0 0.0
2018-Jun-11 22:56N 35°25' E 139°41'0 0.0
2018-Jun-11 22:29N 35°25' E 139°41'0 0.0
2018-Jun-11 21:59N 35°25' E 139°41'0 0.0
2018-Jun-11 21:26N 35°25' E 139°41'0 0.0
2018-Jun-11 20:32N 35°25' E 139°41'0 0.0
2018-Jun-11 19:29N 35°25' E 139°41'0 0.0
2018-Jun-11 18:59N 35°25' E 139°41'0 0.0
2018-Jun-11 17:38N 35°25' E 139°41'0 0.0
2018-Jun-11 17:23N 35°25' E 139°41'0 0.0
2018-Jun-11 16:59N 35°25' E 139°41'0 0.0
2018-Jun-11 13:11N 35°25' E 139°41'0 0.0
2018-Jun-11 12:41N 35°25' E 139°41'0 0.0
2018-Jun-11 07:59N 35°25' E 139°41'0 0.0
2018-Jun-11 07:11N 35°25' E 139°41'0 0.0
2018-Jun-11 06:59N 35°25' E 139°41'0 0.0
2018-Jun-11 06:11N 35°25' E 139°41'0 0.0
2018-Jun-11 05:47N 35°25' E 139°41'0 0.0
2018-Jun-11 05:17N 35°25' E 139°41'0 0.0
2018-Jun-11 04:14N 35°25' E 139°41'0 0.0
2018-Jun-11 03:53N 35°25' E 139°41'0 0.0
2018-Jun-11 03:20N 35°25' E 139°41'0 0.0
2018-Jun-11 02:08N 35°25' E 139°41'0 0.0
2018-Jun-11 01:53N 35°25' E 139°41'0 0.0
2018-Jun-10 23:20N 35°25' E 139°41'0 0.0
2018-Jun-10 22:53N 35°25' E 139°41'0 0.0
2018-Jun-10 22:26N 35°25' E 139°41'0 0.0
2018-Jun-10 19:29N 35°25' E 139°41'0 0.0
2018-Jun-10 17:14N 35°25' E 139°41'0 0.0
2018-Jun-10 16:59N 35°25' E 139°41'0 0.0
2018-Jun-10 14:59N 35°25' E 139°41'0 0.0
2018-Jun-10 11:32N 35°25' E 139°41'0 0.0
2018-Jun-10 11:16N 35°25' E 139°41'2 5.5
2018-Jun-10 10:57N 35°23' E 139°41'2 3.2
2018-Jun-10 10:24N 35°23' E 139°39'0 0.1
2018-Jun-10 09:54N 35°24' E 139°39'2 3.5
2018-Jun-10 09:24N 35°23' E 139°41'2 1.2
2018-Jun-10 08:01N 35°25' E 139°41'0 0.1
2018-Jun-10 07:58N 35°25' E 139°41'0 0.0
2018-Jun-10 07:16N 35°25' E 139°41'0 0.0
2018-Jun-10 06:52N 35°25' E 139°41'0 0.0
2018-Jun-10 06:19N 35°25' E 139°41'0 0.0
2018-Jun-10 04:25N 35°25' E 139°41'0 0.0
2018-Jun-10 02:58N 35°25' E 139°41'0 0.0
2018-Jun-10 01:31N 35°25' E 139°41'0 0.0
2018-Jun-10 01:28N 35°25' E 139°41'0 0.0
2018-Jun-10 00:49N 35°25' E 139°41'0 0.0
2018-Jun-10 00:22N 35°25' E 139°41'0 0.0
2018-Jun-09 23:58N 35°25' E 139°41'0 0.0
2018-Jun-09 23:25N 35°25' E 139°41'0 0.0
2018-Jun-09 22:55N 35°25' E 139°41'0 0.0
2018-Jun-09 22:25N 35°25' E 139°41'0 0.0
2018-Jun-09 21:46N 35°25' E 139°41'  

Dump ship's entire track history